Time;durP1;ratioP1;P1;durP2;ratioP2;P2;SDS_P1;SDS_P2;PMS_P1;PMS_P2;Temp;Humidity;BMP_temperature;BMP_pressure;BME280_temperature;BME280_humidity;BME280_pressure;Samples;Min_cycle;Max_cycle;Signal;HPM_P1;HPM_P2
2022/09/11 00:01:57;;;;;;;9.52;4.40;;;12.80;99.90;;;;;;6277787;22;20443;-78
2022/09/11 00:04:46;;;;;;;6.18;3.47;;;12.80;52.20;;;;;;6276203;22;20034;-80
2022/09/11 00:07:36;;;;;;;10.35;3.17;;;12.80;1.00;;;;;;6277407;22;20104;-80
2022/09/11 00:10:23;;;;;;;8.13;3.45;;;12.90;99.90;;;;;;6278545;22;20304;-80
2022/09/11 00:13:13;;;;;;;4.38;2.60;;;12.90;99.90;;;;;;6274861;22;20077;-82
2022/09/11 00:16:02;;;;;;;6.22;3.28;;;12.90;49.00;;;;;;6276293;22;20099;-82
2022/09/11 00:18:52;;;;;;;4.90;2.88;;;12.90;1.00;;;;;;6277367;22;20303;-80
2022/09/11 00:21:40;;;;;;;7.50;3.10;;;12.90;99.90;;;;;;6277045;22;20028;-80
2022/09/11 00:24:28;;;;;;;7.22;2.95;;;12.90;99.90;;;;;;6277031;22;20019;-81
2022/09/11 00:27:15;;;;;;;6.50;2.53;;;12.90;1.00;;;;;;6277471;22;20034;-79
2022/09/11 00:30:02;;;;;;;7.93;3.20;;;12.90;1.00;;;;;;6276696;22;20034;-79
2022/09/11 00:32:49;;;;;;;6.18;2.38;;;12.90;1.00;;;;;;6276867;22;20024;-81
2022/09/11 00:35:37;;;;;;;6.85;3.28;;;12.80;1.00;;;;;;6275324;22;20099;-81
2022/09/11 00:38:32;;;;;;;6.38;3.28;;;12.80;1.00;;;;;;6277052;22;20038;-80
2022/09/11 00:41:38;;;;;;;7.75;3.03;;;12.90;99.90;;;;;;6255832;22;20031;-80
2022/09/11 00:44:25;;;;;;;7.50;2.90;;;12.80;99.90;;;;;;6276648;22;20319;-81
2022/09/11 00:47:16;;;;;;;4.78;2.60;;;12.80;99.90;;;;;;6277962;22;20557;-80
2022/09/11 00:50:26;;;;;;;5.20;3.08;;;12.80;99.90;;;;;;6277839;22;20027;-80
2022/09/11 00:53:16;;;;;;;12.65;3.20;;;12.80;99.90;;;;;;6276159;22;20518;-80
2022/09/11 00:56:11;;;;;;;8.30;2.75;;;12.70;99.90;;;;;;6255418;22;20098;-81
2022/09/11 00:59:00;;;;;;;7.28;2.90;;;12.70;99.90;;;;;;6278647;22;20027;-82
2022/09/11 01:01:49;;;;;;;7.60;4.00;;;12.70;99.90;;;;;;6277407;22;20020;-81
2022/09/11 01:04:38;;;;;;;7.30;3.90;;;12.70;99.90;;;;;;6256012;22;20020;-80
2022/09/11 01:07:27;;;;;;;3.72;3.13;;;12.70;99.90;;;;;;6278919;22;20311;-80
2022/09/11 01:10:15;;;;;;;9.82;3.60;;;12.80;99.90;;;;;;6255424;22;20033;-81
2022/09/11 01:13:18;;;;;;;3.80;3.10;;;12.80;99.90;;;;;;6278350;22;20039;-81
2022/09/11 01:16:17;;;;;;;4.70;2.97;;;12.80;99.90;;;;;;6255314;22;20103;-80
2022/09/11 01:19:23;;;;;;;6.65;3.38;;;12.80;99.90;;;;;;6254120;22;20024;-80
2022/09/11 01:22:34;;;;;;;6.68;3.40;;;12.80;99.90;;;;;;6278492;22;20034;-80
2022/09/11 01:25:40;;;;;;;12.05;4.00;;;12.80;99.90;;;;;;6275978;22;20112;-82
2022/09/11 01:29:12;;;;;;;7.88;3.67;;;12.70;99.90;;;;;;6254396;22;20034;-79
2022/09/11 01:32:23;;;;;;;7.05;4.03;;;12.70;1.00;;;;;;6275563;22;20311;-80
2022/09/11 01:35:40;;;;;;;7.28;4.45;;;12.70;1.00;;;;;;6277337;22;20050;-81
2022/09/11 01:38:38;;;;;;;10.38;4.65;;;12.70;99.90;;;;;;6254107;22;20055;-81
2022/09/11 01:41:39;;;;;;;7.10;4.68;;;12.70;9.90;;;;;;6256753;22;20095;-82
2022/09/11 01:44:31;;;;;;;8.45;4.38;;;12.70;99.90;;;;;;6253790;22;20065;-80
2022/09/11 01:47:19;;;;;;;8.20;4.53;;;12.70;99.90;;;;;;6255916;22;20095;-81
2022/09/11 01:50:12;;;;;;;8.63;4.15;;;12.70;99.90;;;;;;6277401;22;20105;-80
2022/09/11 01:53:04;;;;;;;7.95;4.22;;;12.70;99.90;;;;;;6277255;22;20110;-81
2022/09/11 01:56:02;;;;;;;9.35;4.55;;;12.70;1.00;;;;;;6256431;22;20096;-80
2022/09/11 01:58:56;;;;;;;8.98;4.85;;;12.70;1.00;;;;;;6275045;22;20099;-81
2022/09/11 02:01:49;;;;;;;9.85;4.95;;;12.70;1.00;;;;;;6254842;22;20103;-80
2022/09/11 02:04:46;;;;;;;9.38;5.22;;;12.70;1.00;;;;;;6277322;22;20145;-81
2022/09/11 02:07:42;;;;;;;9.82;5.45;;;12.70;18.20;;;;;;6276604;22;20028;-82
2022/09/11 02:10:45;;;;;;;11.55;5.10;;;12.70;99.90;;;;;;6277742;22;20092;-81
2022/09/11 02:13:54;;;;;;;9.15;5.00;;;12.70;1.00;;;;;;6275027;22;20024;-80
2022/09/11 02:16:47;;;;;;;13.25;5.05;;;12.70;99.90;;;;;;6276227;22;20027;-80
2022/09/11 02:19:34;;;;;;;13.45;5.90;;;12.70;99.90;;;;;;6276056;22;20355;-81
2022/09/11 02:22:22;;;;;;;10.13;5.43;;;12.70;99.90;;;;;;6275992;22;20032;-82
2022/09/11 02:25:10;;;;;;;13.77;5.60;;;12.70;99.90;;;;;;6275777;22;20051;-81
2022/09/11 02:27:59;;;;;;;6.57;5.18;;;12.70;1.00;;;;;;6277508;22;20051;-79
2022/09/11 02:30:47;;;;;;;10.15;5.78;;;12.70;1.00;;;;;;6275952;22;20441;-80
2022/09/11 02:33:36;;;;;;;13.27;6.03;;;12.70;64.50;;;;;;6235505;22;20020;-80
2022/09/11 02:36:43;;;;;;;12.48;5.75;;;12.70;99.90;;;;;;6275791;22;20102;-80
2022/09/11 02:39:54;;;;;;;12.93;6.60;;;12.70;99.90;;;;;;6276764;22;20109;-81
2022/09/11 02:43:00;;;;;;;13.02;7.47;;;12.70;99.90;;;;;;6275667;22;20039;-79
2022/09/11 02:46:09;;;;;;;11.32;5.95;;;12.70;99.90;;;;;;6275412;22;20024;-79
2022/09/11 02:49:25;;;;;;;12.35;6.65;;;12.70;99.90;;;;;;6252208;22;20095;-80
2022/09/11 02:52:52;;;;;;;9.68;6.22;;;12.70;99.90;;;;;;6277746;22;20303;-79
2022/09/11 02:55:54;;;;;;;12.10;6.60;;;12.70;99.90;;;;;;6166619;22;20066;-79
2022/09/11 02:58:57;;;;;;;11.40;6.15;;;12.70;99.90;;;;;;6276329;22;20339;-80
2022/09/11 03:01:46;;;;;;;11.02;6.63;;;12.70;99.90;;;;;;6254420;22;20094;-80
2022/09/11 03:04:35;;;;;;;12.85;6.63;;;12.70;99.90;;;;;;6277142;22;20019;-79
2022/09/11 03:07:24;;;;;;;10.30;6.43;;;12.70;99.90;;;;;;6278662;22;20023;-81
2022/09/11 03:10:11;;;;;;;10.95;6.00;;;12.70;99.90;;;;;;6276733;22;20108;-80
2022/09/11 03:12:58;;;;;;;13.73;6.60;;;12.70;99.90;;;;;;6276667;22;20031;-78
2022/09/11 03:15:53;;;;;;;11.23;6.68;;;12.70;99.90;;;;;;6255137;22;20182;-79
2022/09/11 03:18:40;;;;;;;9.63;6.32;;;12.70;99.90;;;;;;6276407;22;20039;-78
2022/09/11 03:21:28;;;;;;;9.85;6.22;;;12.70;99.90;;;;;;6257650;22;20034;-80
2022/09/11 03:24:15;;;;;;;12.98;7.20;;;12.70;99.90;;;;;;6277786;22;20028;-79
2022/09/11 03:27:05;;;;;;;8.93;5.90;;;12.80;99.90;;;;;;6276815;22;20030;-80
2022/09/11 03:29:52;;;;;;;11.13;6.45;;;12.70;99.90;;;;;;6276476;22;20019;-79
2022/09/11 03:32:39;;;;;;;8.50;6.20;;;12.80;99.90;;;;;;6277531;22;20090;-80
2022/09/11 03:35:29;;;;;;;9.82;6.22;;;12.70;99.90;;;;;;6254079;22;20083;-79
2022/09/11 03:38:16;;;;;;;9.75;6.65;;;12.70;99.90;;;;;;6276522;22;20038;-80
2022/09/11 03:41:04;;;;;;;8.60;6.20;;;12.70;99.90;;;;;;6277039;22;20035;-80
2022/09/11 03:43:51;;;;;;;7.28;6.00;;;12.70;99.90;;;;;;6277466;22;20317;-81
2022/09/11 03:46:39;;;;;;;9.70;6.22;;;12.80;99.90;;;;;;6277606;22;20024;-80
2022/09/11 03:49:28;;;;;;;9.80;6.78;;;12.80;99.90;;;;;;6277848;22;20024;-80
2022/09/11 03:52:15;;;;;;;11.38;6.90;;;12.80;99.90;;;;;;6277070;22;20355;-81
2022/09/11 03:55:05;;;;;;;6.28;5.68;;;12.80;99.90;;;;;;6276369;22;20348;-78
2022/09/11 03:57:52;;;;;;;9.05;6.28;;;12.90;99.90;;;;;;6277010;22;20337;-81
2022/09/11 04:00:42;;;;;;;10.40;6.18;;;12.90;99.90;;;;;;6276442;22;20106;-78
2022/09/11 04:03:32;;;;;;;7.72;5.70;;;12.90;99.90;;;;;;6278337;22;20020;-81
2022/09/11 04:06:19;;;;;;;10.00;6.63;;;12.90;99.90;;;;;;6276711;22;20028;-78
2022/09/11 04:09:07;;;;;;;8.18;5.68;;;12.90;99.90;;;;;;6277753;22;20034;-80
2022/09/11 04:11:54;;;;;;;8.43;5.80;;;12.90;99.90;;;;;;6256020;22;20089;-78
2022/09/11 04:14:44;;;;;;;10.38;6.32;;;12.90;99.90;;;;;;6278231;22;20453;-79
2022/09/11 04:17:32;;;;;;;10.30;6.22;;;12.90;99.90;;;;;;6277814;22;20038;-81
2022/09/11 04:20:19;;;;;;;6.32;5.63;;;12.90;99.90;;;;;;6278530;22;20089;-80
2022/09/11 04:23:06;;;;;;;10.45;6.13;;;12.90;99.90;;;;;;6277143;22;20327;-79
2022/09/11 04:25:53;;;;;;;9.32;5.82;;;12.90;99.90;;;;;;6276073;22;20039;-79
2022/09/11 04:28:41;;;;;;;8.57;5.35;;;12.90;99.90;;;;;;6277118;22;20058;-78
2022/09/11 04:31:28;;;;;;;7.15;6.03;;;12.80;99.90;;;;;;6277482;22;20098;-79
2022/09/11 04:34:16;;;;;;;8.38;6.50;;;12.90;99.90;;;;;;6278178;22;20020;-82
2022/09/11 04:37:03;;;;;;;9.63;6.97;;;12.80;99.90;;;;;;6278157;22;20038;-79
2022/09/11 04:39:50;;;;;;;11.32;7.80;;;12.80;99.90;;;;;;6276566;22;20051;-81
2022/09/11 04:42:40;;;;;;;11.45;7.90;;;12.90;99.90;;;;;;6277823;22;20019;-80
2022/09/11 04:45:35;;;;;;;12.55;8.77;;;12.90;99.90;;;;;;6279196;22;20024;-81
2022/09/11 04:48:22;;;;;;;14.73;8.50;;;12.90;99.90;;;;;;6277992;22;20027;-79
2022/09/11 04:51:09;;;;;;;16.58;9.00;;;12.90;99.90;;;;;;6277743;22;20434;-81
2022/09/11 04:53:58;;;;;;;11.30;8.65;;;12.90;99.90;;;;;;6279638;22;20086;-80
2022/09/11 04:56:45;;;;;;;10.10;8.52;;;12.90;99.90;;;;;;6276989;22;20042;-81
2022/09/11 04:59:32;;;;;;;12.75;8.85;;;13.00;99.90;;;;;;6255470;22;20038;-79
2022/09/11 05:02:20;;;;;;;13.65;9.02;;;13.00;99.90;;;;;;6276060;22;20094;-79
2022/09/11 05:05:08;;;;;;;12.27;9.27;;;13.00;99.90;;;;;;6278216;22;20065;-81
2022/09/11 05:07:55;;;;;;;15.57;9.77;;;13.00;99.90;;;;;;6275995;22;20327;-78
2022/09/11 05:11:01;;;;;;;13.80;10.20;;;13.00;99.90;;;;;;6253438;22;20095;-80
2022/09/11 05:13:48;;;;;;;14.02;10.30;;;13.00;99.90;;;;;;6254545;22;20020;-80
2022/09/11 05:16:36;;;;;;;12.77;9.85;;;13.00;99.90;;;;;;6281457;22;20059;-78
2022/09/11 05:19:24;;;;;;;17.65;13.13;;;13.00;99.90;;;;;;6282053;22;20027;-78
2022/09/11 05:22:14;;;;;;;24.13;14.50;;;13.00;99.90;;;;;;6282906;22;20023;-81
2022/09/11 05:25:03;;;;;;;16.67;10.90;;;13.00;99.90;;;;;;6282590;22;20023;-79
2022/09/11 05:27:50;;;;;;;18.67;11.40;;;13.00;99.90;;;;;;6256247;22;20031;-78
2022/09/11 05:30:38;;;;;;;12.80;9.82;;;13.10;99.90;;;;;;6255567;22;20477;-78
2022/09/11 05:33:31;;;;;;;14.45;9.52;;;13.10;99.90;;;;;;6256524;22;20034;-79
2022/09/11 05:36:18;;;;;;;11.15;8.43;;;13.10;99.90;;;;;;6255467;22;20107;-78
2022/09/11 05:39:08;;;;;;;11.73;8.55;;;13.10;99.90;;;;;;6255934;22;20034;-79
2022/09/11 05:41:55;;;;;;;11.25;8.50;;;13.10;99.90;;;;;;6273861;22;20049;-78
2022/09/11 05:44:42;;;;;;;13.85;9.30;;;13.10;99.90;;;;;;6277167;22;20028;-79
2022/09/11 05:47:34;;;;;;;12.77;8.40;;;13.20;99.90;;;;;;6277222;22;20102;-80
2022/09/11 05:50:21;;;;;;;10.65;7.78;;;13.20;65.10;;;;;;6278319;22;20268;-77
2022/09/11 05:53:08;;;;;;;10.25;8.68;;;13.20;1.00;;;;;;6256034;22;20478;-78
2022/09/11 05:55:55;;;;;;;11.27;8.27;;;13.20;1.00;;;;;;6255203;22;20061;-78
2022/09/11 05:58:45;;;;;;;15.35;8.77;;;13.30;1.00;;;;;;6277299;22;20094;-79
2022/09/11 06:01:36;;;;;;;11.43;9.38;;;13.30;1.00;;;;;;6278059;22;20022;-81
2022/09/11 06:04:26;;;;;;;10.30;8.37;;;13.30;99.90;;;;;;6254906;22;20023;-80
2022/09/11 06:07:14;;;;;;;9.35;7.60;;;13.40;99.90;;;;;;6276335;22;20157;-80
2022/09/11 06:10:03;;;;;;;11.10;7.97;;;13.40;99.90;;;;;;6276530;22;20026;-80
2022/09/11 06:12:50;;;;;;;10.98;7.70;;;13.50;99.90;;;;;;6274979;22;20094;-80
2022/09/11 06:15:47;;;;;;;10.20;8.13;;;13.50;99.90;;;;;;6276836;22;20030;-80
2022/09/11 06:18:34;;;;;;;12.15;9.07;;;13.60;99.90;;;;;;6254414;22;20089;-80
2022/09/11 06:21:26;;;;;;;13.48;8.25;;;13.60;1.00;;;;;;6254496;22;20059;-80
2022/09/11 06:24:13;;;;;;;11.82;8.05;;;13.60;1.00;;;;;;6277176;22;20098;-80
2022/09/11 06:27:00;;;;;;;15.88;7.93;;;13.70;99.90;;;;;;6277292;22;20027;-80
2022/09/11 06:29:48;;;;;;;11.93;8.15;;;13.70;99.90;;;;;;6275959;22;20027;-79
2022/09/11 06:32:46;;;;;;;9.13;8.20;;;13.80;99.90;;;;;;6275713;22;20037;-81
2022/09/11 06:35:33;;;;;;;11.05;8.07;;;13.90;99.90;;;;;;6255412;22;20330;-80
2022/09/11 06:38:23;;;;;;;10.15;8.57;;;14.00;1.00;;;;;;6254782;22;20142;-79
2022/09/11 06:41:13;;;;;;;9.63;8.27;;;14.00;7.20;;;;;;6253126;22;20134;-79
2022/09/11 06:44:01;;;;;;;11.77;8.48;;;14.00;99.90;;;;;;6275002;22;20368;-80
2022/09/11 06:46:48;;;;;;;11.25;8.07;;;14.10;99.90;;;;;;6255477;22;20016;-81
2022/09/11 06:49:35;;;;;;;11.20;8.65;;;14.20;99.90;;;;;;6275795;22;20028;-81
2022/09/11 06:52:24;;;;;;;9.30;8.40;;;14.30;99.90;;;;;;6275665;22;20102;-80
2022/09/11 06:55:13;;;;;;;9.93;8.98;;;14.40;99.90;;;;;;6275752;22;20034;-80
2022/09/11 06:58:02;;;;;;;10.32;8.20;;;14.40;1.00;;;;;;6277345;22;20028;-81
2022/09/11 07:00:49;;;;;;;10.60;9.50;;;14.60;99.90;;;;;;6276540;22;20027;-80
2022/09/11 07:03:43;;;;;;;11.85;7.38;;;14.60;99.90;;;;;;6275923;22;20023;-81
2022/09/11 07:06:31;;;;;;;9.98;7.88;;;14.70;1.00;;;;;;6276181;22;20046;-80
2022/09/11 07:09:18;;;;;;;12.40;8.10;;;14.70;1.00;;;;;;6252751;22;20034;-81
2022/09/11 07:12:06;;;;;;;11.18;8.93;;;14.60;99.90;;;;;;6275751;22;20038;-80
2022/09/11 07:14:53;;;;;;;11.38;8.23;;;14.60;99.90;;;;;;6253118;22;20020;-80
2022/09/11 07:17:43;;;;;;;9.40;8.32;;;14.70;99.90;;;;;;6254918;22;20034;-81
2022/09/11 07:20:31;;;;;;;14.38;8.70;;;14.80;99.90;;;;;;6255016;22;20027;-79
2022/09/11 07:23:18;;;;;;;12.25;9.50;;;14.90;84.60;;;;;;6253592;22;20035;-79
2022/09/11 07:26:08;;;;;;;13.85;8.80;;;15.00;1.00;;;;;;6274762;22;20271;-79
2022/09/11 07:29:02;;;;;;;14.43;9.88;;;15.00;1.00;;;;;;6253906;22;20024;-81
2022/09/11 07:31:54;;;;;;;11.55;9.10;;;15.00;1.00;;;;;;6252742;22;20418;-79
2022/09/11 07:34:41;;;;;;;11.25;10.15;;;14.90;99.90;;;;;;6253271;22;20462;-80
2022/09/11 07:37:33;;;;;;;12.63;9.93;;;14.90;99.90;;;;;;6253193;22;20027;-80
2022/09/11 07:40:23;;;;;;;10.60;9.50;;;14.90;99.90;;;;;;6276535;22;20098;-79
2022/09/11 07:43:12;;;;;;;15.13;11.15;;;14.90;99.90;;;;;;6276184;22;20028;-81
2022/09/11 07:45:59;;;;;;;14.73;11.15;;;14.90;99.90;;;;;;6275679;22;20035;-80
2022/09/11 07:48:47;;;;;;;16.85;11.50;;;15.00;99.90;;;;;;6276071;22;20019;-81
2022/09/11 07:51:36;;;;;;;15.55;11.00;;;15.00;99.90;;;;;;6278678;22;20047;-79
2022/09/11 07:54:23;;;;;;;15.07;10.60;;;15.20;99.90;;;;;;6279330;22;20451;-79
2022/09/11 07:57:10;;;;;;;13.63;10.60;;;15.40;99.90;;;;;;6279205;22;20419;-81
2022/09/11 07:59:58;;;;;;;12.63;10.35;;;15.50;99.90;;;;;;6277656;22;20058;-80
2022/09/11 08:02:46;;;;;;;12.05;10.73;;;15.60;99.90;;;;;;6277661;22;20034;-81
2022/09/11 08:05:33;;;;;;;12.48;10.10;;;15.60;99.90;;;;;;6257808;22;20037;-81
2022/09/11 08:08:24;;;;;;;13.00;10.60;;;15.60;97.00;;;;;;6269112;22;20023;-80
2022/09/11 08:11:16;;;;;;;14.00;11.57;;;15.60;44.10;;;;;;6255228;22;20101;-80
2022/09/11 08:14:08;;;;;;;17.08;10.77;;;15.50;43.10;;;;;;6277624;22;20456;-79
2022/09/11 08:16:56;;;;;;;13.77;12.05;;;15.60;35.80;;;;;;6280001;22;20099;-80
2022/09/11 08:19:43;;;;;;;13.05;10.35;;;15.70;22.60;;;;;;6276125;22;20471;-79
2022/09/11 08:22:32;;;;;;;11.95;10.52;;;15.80;5.30;;;;;;6252790;22;20095;-79
2022/09/11 08:25:19;;;;;;;14.30;10.75;;;15.90;1.00;;;;;;6276801;22;20027;-80
2022/09/11 08:28:10;;;;;;;11.20;10.07;;;16.10;1.00;;;;;;6277337;22;20077;-79
2022/09/11 08:30:57;;;;;;;11.00;9.90;;;16.20;1.00;;;;;;6276551;22;20120;-79
2022/09/11 08:33:45;;;;;;;14.43;9.98;;;16.40;1.00;;;;;;6276889;22;20028;-79
2022/09/11 08:36:32;;;;;;;11.80;10.02;;;16.70;1.00;;;;;;6278764;22;20376;-80
2022/09/11 08:39:19;;;;;;;12.00;9.10;;;17.00;1.00;;;;;;6256540;22;20098;-80
2022/09/11 08:42:13;;;;;;;9.48;7.85;;;18.00;99.90;;;;;;6276449;22;20027;-80
2022/09/11 08:45:06;;;;;;;8.77;6.97;;;18.80;99.90;;;;;;6256092;22;20024;-81
2022/09/11 08:47:57;;;;;;;8.65;7.75;;;19.30;99.90;;;;;;6256479;22;20112;-80
2022/09/11 08:50:48;;;;;;;8.10;7.30;;;18.80;99.90;;;;;;6276413;22;20031;-81
2022/09/11 08:53:35;;;;;;;11.13;7.20;;;18.40;99.90;;;;;;6277675;22;20034;-80
2022/09/11 08:56:27;;;;;;;10.13;7.75;;;18.20;99.90;;;;;;6276378;22;20020;-80
2022/09/11 08:59:22;;;;;;;12.48;8.00;;;18.00;99.90;;;;;;6275371;22;20051;-80
2022/09/11 09:02:14;;;;;;;10.00;8.57;;;17.70;99.90;;;;;;6277493;22;20034;-80
2022/09/11 09:05:44;;;;;;;8.50;7.70;;;17.40;99.90;;;;;;6275452;22;20031;-81
2022/09/11 09:08:52;;;;;;;10.77;8.40;;;17.30;99.90;;;;;;6272308;22;20111;-80
2022/09/11 09:11:54;;;;;;;7.53;6.32;;;17.80;99.90;;;;;;6276234;22;20076;-81
2022/09/11 09:15:19;;;;;;;7.50;6.22;;;19.30;99.90;;;;;;6277596;22;20028;-81
2022/09/11 09:18:34;;;;;;;7.25;5.68;;;20.90;99.90;;;;;;6275981;22;20123;-80
2022/09/11 09:21:30;;;;;;;6.30;5.70;;;22.00;99.90;;;;;;6275772;22;20031;-81
2022/09/11 09:24:21;;;;;;;6.03;4.85;;;22.90;98.40;;;;;;6275937;22;20102;-80
2022/09/11 09:27:23;;;;;;;7.75;5.30;;;23.40;60.60;;;;;;6276722;22;20023;-83
2022/09/11 09:30:22;;;;;;;7.22;4.95;;;24.50;35.50;;;;;;6276428;22;20058;-84
2022/09/11 09:33:26;;;;;;;5.93;4.70;;;25.00;23.00;;;;;;6275866;22;20106;-83
2022/09/11 09:36:32;;;;;;;6.15;4.97;;;24.70;8.90;;;;;;6276854;22;20027;-82
2022/09/11 09:39:21;;;;;;;5.32;4.30;;;24.10;1.00;;;;;;6253667;22;20051;-83
2022/09/11 09:42:27;;;;;;;6.43;5.40;;;23.10;4.20;;;;;;6276193;22;20130;-83
2022/09/11 09:45:36;;;;;;;6.47;4.90;;;21.70;8.20;;;;;;6276596;22;20023;-82
2022/09/11 09:48:29;;;;;;;5.85;4.88;;;21.10;9.60;;;;;;6256527;22;20028;-82
2022/09/11 09:51:17;;;;;;;5.53;4.75;;;20.60;23.80;;;;;;6259022;22;20431;-88
2022/09/11 09:54:05;;;;;;;5.80;4.97;;;20.40;38.80;;;;;;6279355;22;20031;-89
2022/09/11 09:57:10;;;;;;;8.80;5.05;;;21.40;90.50;;;;;;6255210;22;20106;-88
2022/09/11 10:00:21;;;;;;;5.60;4.28;;;23.00;19.50;;;;;;6256167;22;20427;-89
2022/09/11 10:03:22;;;;;;;6.15;3.95;;;24.60;1.40;;;;;;6255636;22;20031;-88
2022/09/11 10:06:10;;;;;;;4.70;4.18;;;24.80;1.00;;;;;;6255669;22;20034;-87
2022/09/11 10:08:57;;;;;;;5.55;4.43;;;23.50;1.00;;;;;;6276882;22;20098;-89
2022/09/11 10:12:17;;;;;;;4.47;4.07;;;22.80;1.00;;;;;;6275946;22;20158;-92
2022/09/11 10:15:05;;;;;;;6.70;4.18;;;23.50;6.50;;;;;;6254012;22;20028;-88
2022/09/11 10:17:55;;;;;;;5.30;4.80;;;24.80;1.00;;;;;;6277985;22;20330;-90
2022/09/11 10:20:44;;;;;;;5.38;4.45;;;24.40;1.00;;;;;;6278086;22;20063;-89
2022/09/11 10:23:45;;;;;;;5.15;4.45;;;24.30;1.00;;;;;;6255616;22;20027;-90
2022/09/11 10:26:46;;;;;;;6.18;3.53;;;24.40;1.00;;;;;;6254403;22;20081;-89
2022/09/11 10:29:36;;;;;;;4.18;3.67;;;24.70;1.00;;;;;;6276428;22;20099;-86
2022/09/11 10:32:24;;;;;;;5.80;4.25;;;25.00;1.00;;;;;;6277138;22;20077;-89
2022/09/11 10:35:16;;;;;;;5.03;4.10;;;25.90;1.00;;;;;;6253013;22;20123;-87
2022/09/11 10:38:18;;;;;;;4.55;4.13;;;26.60;1.00;;;;;;6276540;22;20027;-86
2022/09/11 10:41:08;;;;;;;3.63;3.30;;;27.40;1.00;;;;;;6275511;22;20121;-87
2022/09/11 10:44:09;;;;;;;5.85;4.22;;;27.70;1.00;;;;;;6255976;22;20183;-91
2022/09/11 10:47:20;;;;;;;4.28;3.83;;;26.80;1.00;;;;;;6278078;22;20070;-88
2022/09/11 10:50:19;;;;;;;4.90;3.72;;;25.50;1.00;;;;;;6277123;22;20023;-89
2022/09/11 10:53:22;;;;;;;4.57;3.30;;;25.30;1.00;;;;;;6255078;22;20384;-88
2022/09/11 10:56:09;;;;;;;5.30;3.80;;;25.10;1.00;;;;;;6256223;22;20027;-89
2022/09/11 10:59:03;;;;;;;6.05;3.75;;;25.30;1.00;;;;;;6277000;22;20104;-87
2022/09/11 11:01:54;;;;;;;4.95;3.55;;;25.80;1.00;;;;;;6255058;22;20102;-88
2022/09/11 11:04:42;;;;;;;4.03;3.40;;;27.20;1.00;;;;;;6277780;22;20326;-89
2022/09/11 11:07:46;;;;;;;3.42;2.53;;;27.60;1.00;;;;;;6277535;22;20055;-89
2022/09/11 11:10:54;;;;;;;2.92;2.35;;;28.20;1.00;;;;;;6254993;22;20020;-89
2022/09/11 11:13:45;;;;;;;3.70;2.80;;;29.00;1.00;;;;;;6253431;22;20427;-89
2022/09/11 11:16:58;;;;;;;3.72;2.72;;;28.30;1.00;;;;;;6276814;22;20027;-87
2022/09/11 11:20:06;;;;;;;;;;;27.00;1.00;;;;;;6278933;22;20024;-86
2022/09/11 11:23:31;;;;;;;3.63;3.28;;;25.40;1.00;;;;;;6271944;22;19915;-86
2022/09/11 11:26:28;;;;;;;4.70;4.03;;;23.40;1.00;;;;;;6253944;22;20034;-85
2022/09/11 11:29:44;;;;;;;4.57;3.22;;;23.40;1.00;;;;;;6256359;22;20111;-87
2022/09/11 11:32:52;;;;;;;5.22;3.05;;;24.60;1.00;;;;;;6278272;22;20034;-88
2022/09/11 11:35:44;;;;;;;3.58;2.88;;;25.90;1.00;;;;;;6276935;22;20051;-85
2022/09/11 11:38:32;;;;;;;2.42;2.22;;;27.30;1.00;;;;;;6278165;22;20103;-85
2022/09/11 11:41:26;;;;;;;2.92;2.35;;;28.80;1.00;;;;;;6276846;22;20123;-86
2022/09/11 11:44:24;;;;;;;2.95;2.15;;;30.00;1.00;;;;;;6234956;22;20089;-85
2022/09/11 11:47:15;;;;;;;2.28;1.80;;;31.20;1.00;;;;;;6276584;22;20156;-86
2022/09/11 11:50:21;;;;;;;1.80;1.70;;;31.00;1.00;;;;;;6278010;22;20081;-85
2022/09/11 11:53:28;;;;;;;2.53;1.90;;;31.80;1.00;;;;;;6276980;22;20039;-86
2022/09/11 11:56:21;;;;;;;6.00;2.42;;;31.60;1.00;;;;;;6256608;22;20062;-86
2022/09/11 11:59:19;;;;;;;3.90;2.20;;;29.90;1.00;;;;;;6256849;22;20464;-87
2022/09/11 12:02:17;;;;;;;2.90;2.20;;;28.90;1.00;;;;;;6278374;22;20093;-85
2022/09/11 12:05:16;;;;;;;2.45;2.25;;;28.40;1.00;;;;;;6278211;22;20023;-86
2022/09/11 12:08:12;;;;;;;2.78;2.03;;;28.60;1.00;;;;;;6276392;22;20102;-86
2022/09/11 12:11:04;;;;;;;2.53;1.90;;;28.70;1.00;;;;;;6277621;22;20038;-85
2022/09/11 12:13:53;;;;;;;2.20;2.00;;;28.70;1.00;;;;;;6256990;22;20070;-87
2022/09/11 12:16:42;;;;;;;3.17;2.10;;;29.60;1.00;;;;;;6256482;22;20024;-85
2022/09/11 12:19:29;;;;;;;1.95;1.70;;;30.30;1.00;;;;;;6280316;22;20023;-87
2022/09/11 12:22:32;;;;;;;2.75;1.80;;;29.70;1.00;;;;;;6279528;22;20081;-87
2022/09/11 12:25:22;;;;;;;2.10;1.67;;;29.10;1.00;;;;;;6257475;22;20107;-85
2022/09/11 12:28:25;;;;;;;2.67;1.95;;;29.30;1.00;;;;;;6278125;22;20131;-84
2022/09/11 12:31:18;;;;;;;2.65;1.92;;;29.40;1.00;;;;;;6281984;22;20031;-86
2022/09/11 12:34:16;;;;;;;2.38;2.17;;;28.70;1.00;;;;;;6288786;22;20027;-86
2022/09/11 12:37:10;;;;;;;3.22;2.28;;;27.60;1.00;;;;;;6260377;22;20035;-85
2022/09/11 12:40:23;;;;;;;2.53;2.05;;;26.70;1.00;;;;;;6282955;22;20027;-85
2022/09/11 12:43:16;;;;;;;4.57;2.78;;;26.50;1.00;;;;;;6257424;22;20027;-86
2022/09/11 12:46:26;;;;;;;2.72;2.50;;;26.00;1.00;;;;;;6276581;22;20077;-84
2022/09/11 12:49:19;;;;;;;4.80;2.92;;;24.70;1.00;;;;;;6276475;22;20020;-87
2022/09/11 12:52:36;;;;;;;5.82;2.63;;;24.00;1.00;;;;;;6273646;22;20026;-86
2022/09/11 12:55:26;;;;;;;4.95;2.60;;;23.60;1.00;;;;;;6273408;22;20081;-85
2022/09/11 12:59:03;;;;;;;3.50;3.20;;;23.60;1.00;;;;;;6274604;22;20034;-84
2022/09/11 13:01:54;;;;;;;3.28;2.97;;;23.60;1.00;;;;;;6273767;22;20024;-87
2022/09/11 13:04:52;;;;;;;3.13;2.70;;;23.60;1.00;;;;;;6254670;22;20020;-85
2022/09/11 13:07:58;;;;;;;3.88;2.80;;;23.30;1.00;;;;;;6182112;23;20025;-84
2022/09/11 13:11:42;;;;;;;5.32;3.25;;;23.30;1.00;;;;;;6184298;23;20510;-84
2022/09/11 13:14:29;;;;;;;4.03;3.40;;;22.80;1.00;;;;;;6184517;23;20095;-85
2022/09/11 13:17:29;;;;;;;3.35;2.70;;;22.80;1.00;;;;;;6185131;23;20080;-85
2022/09/11 13:21:17;;;;;;;3.83;2.60;;;24.50;1.00;;;;;;6154961;23;20032;-84
2022/09/11 13:24:41;;;;;;;3.33;2.47;;;24.90;1.00;;;;;;6184332;23;20386;-85
2022/09/11 13:35:18;;;;;;;3.60;2.70;;;25.60;1.00;;;;;;6124370;23;20037;-86
2022/09/11 13:38:54;;;;;;;3.42;2.80;;;25.10;1.00;;;;;;6104508;23;20088;-87
2022/09/11 13:41:43;;;;;;;3.63;2.88;;;24.80;1.00;;;;;;6182392;23;20025;-85
2022/09/11 13:44:45;;;;;;;6.85;3.60;;;24.60;1.00;;;;;;6198280;22;20031;-86
2022/09/11 13:47:39;;;;;;;5.55;3.28;;;23.70;1.00;;;;;;6259560;22;20074;-88
2022/09/11 13:50:27;;;;;;;3.75;3.45;;;22.80;1.00;;;;;;6283903;22;20076;-86
2022/09/11 13:53:18;;;;;;;4.13;3.50;;;22.40;1.00;;;;;;6281605;22;20078;-86
2022/09/11 13:59:57;;;;;;;3.75;3.00;;;23.30;1.00;;;;;;6278975;22;20039;-86
2022/09/11 14:02:49;;;;;;;5.05;3.17;;;23.80;1.00;;;;;;6255886;22;20023;-86
2022/09/11 14:05:47;;;;;;;4.90;2.90;;;23.60;1.00;;;;;;6279708;22;20054;-85
2022/09/11 14:08:39;;;;;;;6.65;3.05;;;24.60;1.00;;;;;;6276860;22;20150;-88
2022/09/11 14:11:33;;;;;;;5.22;3.03;;;26.00;1.00;;;;;;6276746;22;20128;-83
2022/09/11 14:14:27;;;;;;;3.83;2.78;;;25.20;1.00;;;;;;6276150;22;20388;-87
2022/09/11 14:17:16;;;;;;;3.45;3.00;;;25.40;1.00;;;;;;6257641;22;20028;-86
2022/09/11 14:20:04;;;;;;;2.85;2.60;;;25.60;1.00;;;;;;6278746;22;20034;-89
2022/09/11 14:22:58;;;;;;;2.88;2.67;;;24.90;1.00;;;;;;6255880;22;20109;-87
2022/09/11 14:26:38;;;;;;;4.72;2.90;;;24.80;1.00;;;;;;6279856;22;20042;-88
2022/09/11 14:29:35;;;;;;;3.63;3.20;;;24.30;1.00;;;;;;6132933;23;20025;-85
2022/09/11 14:32:38;;;;;;;4.55;3.25;;;23.90;1.00;;;;;;6156259;23;20205;-88
2022/09/11 14:35:30;;;;;;;5.78;3.22;;;23.20;1.00;;;;;;6285326;22;20085;-86
2022/09/11 14:42:36;;;;;;;3.70;3.40;;;21.90;1.00;;;;;;6278216;22;20004;-86
2022/09/11 14:45:24;;;;;;;6.35;3.85;;;21.40;1.00;;;;;;6278184;22;20104;-88
2022/09/11 14:48:17;;;;;;;6.70;4.50;;;21.00;1.00;;;;;;6254954;22;20046;-87
2022/09/11 14:51:05;;;;;;;4.70;4.20;;;20.70;1.00;;;;;;6275958;22;20315;-85
2022/09/11 14:53:59;;;;;;;4.95;4.15;;;20.50;1.00;;;;;;6277467;22;20042;-86
2022/09/11 14:56:48;;;;;;;5.20;3.92;;;20.40;1.00;;;;;;6280211;22;20089;-85
2022/09/11 14:59:35;;;;;;;7.15;3.90;;;20.50;1.00;;;;;;6282073;22;20337;-85
2022/09/11 15:02:25;;;;;;;4.93;3.72;;;20.20;1.00;;;;;;6276898;22;20055;-87
2022/09/11 15:05:16;;;;;;;4.82;4.28;;;20.00;1.00;;;;;;6274014;22;20042;-87
2022/09/11 15:24:41;;;;;;;7.30;4.65;;;19.90;1.00;;;;;;6276113;22;20008;-87
2022/09/11 15:27:43;;;;;;;3.85;3.45;;;20.20;1.00;;;;;;6152538;23;20025;-87
2022/09/11 16:03:24;;;;;;;;;;;23.60;1.00;;;;;;6275626;22;20003;-86
2022/09/11 16:52:14;;;;;;;4.53;4.13;;;19.10;1.00;;;;;;6067004;23;20439;-84
2022/09/11 17:53:17;;;;;;;8.93;6.65;;;16.70;99.90;;;;;;6248031;23;20362;-87
2022/09/11 18:25:59;;;;;;;18.33;7.03;;;15.60;99.90;;;;;;6133675;23;20014;-86
2022/09/11 18:29:47;;;;;;;9.20;7.47;;;15.40;99.90;;;;;;6100169;23;20049;-86